sensor_id;sensor_type;location;lat;lon;timestamp;temperature;humidity
37702;DHT22;23548;51.196;6.838;2022-08-03T00:00:51;20.70;99.90
37702;DHT22;23548;51.196;6.838;2022-08-03T00:03:17;20.70;99.90
37702;DHT22;23548;51.196;6.838;2022-08-03T00:05:42;20.60;99.90
37702;DHT22;23548;51.196;6.838;2022-08-03T00:08:08;20.70;99.90
37702;DHT22;23548;51.196;6.838;2022-08-03T00:10:34;20.70;99.90
37702;DHT22;23548;51.196;6.838;2022-08-03T00:13:00;20.70;99.90
37702;DHT22;23548;51.196;6.838;2022-08-03T00:15:25;20.70;99.90
37702;DHT22;23548;51.196;6.838;2022-08-03T00:17:51;20.60;99.90
37702;DHT22;23548;51.196;6.838;2022-08-03T00:20:17;20.50;99.90
37702;DHT22;23548;51.196;6.838;2022-08-03T00:22:43;20.40;99.90
37702;DHT22;23548;51.196;6.838;2022-08-03T00:25:08;20.30;99.90
37702;DHT22;23548;51.196;6.838;2022-08-03T00:27:34;20.30;99.90
37702;DHT22;23548;51.196;6.838;2022-08-03T00:30:00;20.40;99.90
37702;DHT22;23548;51.196;6.838;2022-08-03T00:32:25;20.40;99.90
37702;DHT22;23548;51.196;6.838;2022-08-03T00:34:51;20.30;99.90
37702;DHT22;23548;51.196;6.838;2022-08-03T00:37:17;20.20;99.90
37702;DHT22;23548;51.196;6.838;2022-08-03T00:39:42;20.20;99.90
37702;DHT22;23548;51.196;6.838;2022-08-03T00:42:10;20.20;99.90
37702;DHT22;23548;51.196;6.838;2022-08-03T00:44:43;20.20;99.90
37702;DHT22;23548;51.196;6.838;2022-08-03T00:47:10;20.10;99.90
37702;DHT22;23548;51.196;6.838;2022-08-03T00:49:37;20.00;99.90
37702;DHT22;23548;51.196;6.838;2022-08-03T00:52:03;19.90;99.90
37702;DHT22;23548;51.196;6.838;2022-08-03T00:54:29;19.90;99.90
37702;DHT22;23548;51.196;6.838;2022-08-03T00:56:55;19.90;99.90
37702;DHT22;23548;51.196;6.838;2022-08-03T00:59:21;19.80;99.90
37702;DHT22;23548;51.196;6.838;2022-08-03T01:01:47;19.70;99.90
37702;DHT22;23548;51.196;6.838;2022-08-03T01:04:13;19.70;99.90
37702;DHT22;23548;51.196;6.838;2022-08-03T01:15:26;19.90;99.90
37702;DHT22;23548;51.196;6.838;2022-08-03T01:18:37;19.90;99.90
37702;DHT22;23548;51.196;6.838;2022-08-03T01:21:11;19.80;99.90
37702;DHT22;23548;51.196;6.838;2022-08-03T01:29:38;19.70;99.90
37702;DHT22;23548;51.196;6.838;2022-08-03T01:35:53;19.60;99.90
37702;DHT22;23548;51.196;6.838;2022-08-03T01:38:28;19.60;99.90
37702;DHT22;23548;51.196;6.838;2022-08-03T01:40:57;19.60;99.90
37702;DHT22;23548;51.196;6.838;2022-08-03T01:43:28;19.60;99.90
37702;DHT22;23548;51.196;6.838;2022-08-03T01:45:55;19.60;99.90
37702;DHT22;23548;51.196;6.838;2022-08-03T01:48:22;19.50;99.90
37702;DHT22;23548;51.196;6.838;2022-08-03T01:50:48;19.50;99.90
37702;DHT22;23548;51.196;6.838;2022-08-03T01:53:16;19.50;99.90
37702;DHT22;23548;51.196;6.838;2022-08-03T01:55:45;19.50;99.90
37702;DHT22;23548;51.196;6.838;2022-08-03T01:58:14;19.50;99.90
37702;DHT22;23548;51.196;6.838;2022-08-03T02:00:42;19.60;99.90
37702;DHT22;23548;51.196;6.838;2022-08-03T02:03:08;19.50;99.90
37702;DHT22;23548;51.196;6.838;2022-08-03T02:05:38;19.50;99.90
37702;DHT22;23548;51.196;6.838;2022-08-03T02:08:06;19.50;99.90
37702;DHT22;23548;51.196;6.838;2022-08-03T02:10:32;19.50;99.90
37702;DHT22;23548;51.196;6.838;2022-08-03T02:13:00;19.40;99.90
37702;DHT22;23548;51.196;6.838;2022-08-03T02:15:27;19.40;99.90
37702;DHT22;23548;51.196;6.838;2022-08-03T02:17:55;19.40;99.90
37702;DHT22;23548;51.196;6.838;2022-08-03T02:20:23;19.40;99.90
37702;DHT22;23548;51.196;6.838;2022-08-03T02:22:49;19.30;99.90
37702;DHT22;23548;51.196;6.838;2022-08-03T02:25:15;19.30;99.90
37702;DHT22;23548;51.196;6.838;2022-08-03T02:28:00;19.30;99.90
37702;DHT22;23548;51.196;6.838;2022-08-03T02:30:33;19.40;99.90
37702;DHT22;23548;51.196;6.838;2022-08-03T02:33:04;19.30;99.90
37702;DHT22;23548;51.196;6.838;2022-08-03T02:35:32;19.20;99.90
37702;DHT22;23548;51.196;6.838;2022-08-03T02:38:04;19.30;99.90
37702;DHT22;23548;51.196;6.838;2022-08-03T02:40:32;19.20;99.90
37702;DHT22;23548;51.196;6.838;2022-08-03T02:43:19;19.20;99.90
37702;DHT22;23548;51.196;6.838;2022-08-03T02:45:49;19.20;99.90
37702;DHT22;23548;51.196;6.838;2022-08-03T02:48:19;19.20;99.90
37702;DHT22;23548;51.196;6.838;2022-08-03T02:50:46;19.10;99.90
37702;DHT22;23548;51.196;6.838;2022-08-03T02:53:13;19.20;99.90
37702;DHT22;23548;51.196;6.838;2022-08-03T02:55:41;19.10;99.90
37702;DHT22;23548;51.196;6.838;2022-08-03T02:58:08;19.10;99.90
37702;DHT22;23548;51.196;6.838;2022-08-03T03:00:36;19.10;99.90
37702;DHT22;23548;51.196;6.838;2022-08-03T03:03:03;19.10;99.90
37702;DHT22;23548;51.196;6.838;2022-08-03T03:05:31;19.00;99.90
37702;DHT22;23548;51.196;6.838;2022-08-03T03:07:57;19.00;99.90
37702;DHT22;23548;51.196;6.838;2022-08-03T03:10:24;19.00;99.90
37702;DHT22;23548;51.196;6.838;2022-08-03T03:12:56;19.00;99.90
37702;DHT22;23548;51.196;6.838;2022-08-03T03:15:26;19.00;99.90
37702;DHT22;23548;51.196;6.838;2022-08-03T03:17:53;19.00;99.90
37702;DHT22;23548;51.196;6.838;2022-08-03T03:20:20;19.00;99.90
37702;DHT22;23548;51.196;6.838;2022-08-03T03:22:50;18.90;99.90
37702;DHT22;23548;51.196;6.838;2022-08-03T03:25:17;18.90;99.90
37702;DHT22;23548;51.196;6.838;2022-08-03T03:27:44;18.90;99.90
37702;DHT22;23548;51.196;6.838;2022-08-03T03:30:10;19.00;99.90
37702;DHT22;23548;51.196;6.838;2022-08-03T03:32:36;19.00;99.90
37702;DHT22;23548;51.196;6.838;2022-08-03T03:35:04;19.10;99.90
37702;DHT22;23548;51.196;6.838;2022-08-03T03:37:31;19.00;99.90
37702;DHT22;23548;51.196;6.838;2022-08-03T03:39:57;18.90;99.90
37702;DHT22;23548;51.196;6.838;2022-08-03T03:42:24;18.90;99.90
37702;DHT22;23548;51.196;6.838;2022-08-03T03:44:50;18.90;99.90
37702;DHT22;23548;51.196;6.838;2022-08-03T03:47:17;18.90;99.90
37702;DHT22;23548;51.196;6.838;2022-08-03T03:49:43;18.90;99.90
37702;DHT22;23548;51.196;6.838;2022-08-03T03:52:10;18.80;99.90
37702;DHT22;23548;51.196;6.838;2022-08-03T03:54:42;18.80;99.90
37702;DHT22;23548;51.196;6.838;2022-08-03T03:57:09;18.80;99.90
37702;DHT22;23548;51.196;6.838;2022-08-03T03:59:42;18.80;99.90
37702;DHT22;23548;51.196;6.838;2022-08-03T04:02:09;18.70;99.90
37702;DHT22;23548;51.196;6.838;2022-08-03T04:04:36;18.70;99.90
37702;DHT22;23548;51.196;6.838;2022-08-03T04:07:23;18.70;99.90
37702;DHT22;23548;51.196;6.838;2022-08-03T04:10:20;18.60;99.90
37702;DHT22;23548;51.196;6.838;2022-08-03T04:13:08;18.60;99.90
37702;DHT22;23548;51.196;6.838;2022-08-03T04:15:36;18.60;99.90
37702;DHT22;23548;51.196;6.838;2022-08-03T04:18:03;18.60;99.90
37702;DHT22;23548;51.196;6.838;2022-08-03T04:20:31;18.60;99.90
37702;DHT22;23548;51.196;6.838;2022-08-03T04:22:59;18.60;99.90
37702;DHT22;23548;51.196;6.838;2022-08-03T04:25:29;18.60;99.90
37702;DHT22;23548;51.196;6.838;2022-08-03T04:27:59;18.70;99.90
37702;DHT22;23548;51.196;6.838;2022-08-03T04:30:28;18.70;99.90
37702;DHT22;23548;51.196;6.838;2022-08-03T04:32:57;18.70;99.90
37702;DHT22;23548;51.196;6.838;2022-08-03T04:35:32;18.70;99.90
37702;DHT22;23548;51.196;6.838;2022-08-03T04:38:02;18.80;99.90
37702;DHT22;23548;51.196;6.838;2022-08-03T04:40:33;18.80;99.90
37702;DHT22;23548;51.196;6.838;2022-08-03T04:42:59;18.90;99.90
37702;DHT22;23548;51.196;6.838;2022-08-03T04:45:27;19.00;99.90
37702;DHT22;23548;51.196;6.838;2022-08-03T04:47:54;18.90;99.90
37702;DHT22;23548;51.196;6.838;2022-08-03T04:50:21;18.90;99.90
37702;DHT22;23548;51.196;6.838;2022-08-03T04:52:47;19.00;99.90
37702;DHT22;23548;51.196;6.838;2022-08-03T04:55:25;19.20;99.90
37702;DHT22;23548;51.196;6.838;2022-08-03T04:57:51;19.20;99.90
37702;DHT22;23548;51.196;6.838;2022-08-03T05:00:17;19.40;99.90
37702;DHT22;23548;51.196;6.838;2022-08-03T05:02:43;19.50;99.90
37702;DHT22;23548;51.196;6.838;2022-08-03T05:05:09;19.60;99.90
37702;DHT22;23548;51.196;6.838;2022-08-03T05:07:36;19.70;99.90
37702;DHT22;23548;51.196;6.838;2022-08-03T05:10:06;19.80;99.90
37702;DHT22;23548;51.196;6.838;2022-08-03T05:12:32;19.90;99.90
37702;DHT22;23548;51.196;6.838;2022-08-03T05:14:59;20.00;99.90
37702;DHT22;23548;51.196;6.838;2022-08-03T05:17:24;20.10;99.90
37702;DHT22;23548;51.196;6.838;2022-08-03T05:19:50;20.30;99.90
37702;DHT22;23548;51.196;6.838;2022-08-03T05:22:16;20.40;99.90
37702;DHT22;23548;51.196;6.838;2022-08-03T05:24:41;20.60;99.90
37702;DHT22;23548;51.196;6.838;2022-08-03T05:27:07;20.70;99.90
37702;DHT22;23548;51.196;6.838;2022-08-03T05:29:33;20.80;99.90
37702;DHT22;23548;51.196;6.838;2022-08-03T05:31:59;20.90;99.90
37702;DHT22;23548;51.196;6.838;2022-08-03T05:34:26;21.00;99.90
37702;DHT22;23548;51.196;6.838;2022-08-03T05:36:52;21.10;99.90
37702;DHT22;23548;51.196;6.838;2022-08-03T05:39:17;21.20;99.90
37702;DHT22;23548;51.196;6.838;2022-08-03T05:41:43;21.30;99.90
37702;DHT22;23548;51.196;6.838;2022-08-03T05:44:09;21.40;99.90
37702;DHT22;23548;51.196;6.838;2022-08-03T05:46:35;21.50;99.90
37702;DHT22;23548;51.196;6.838;2022-08-03T05:49:00;21.60;99.90
37702;DHT22;23548;51.196;6.838;2022-08-03T05:51:26;21.60;99.90
37702;DHT22;23548;51.196;6.838;2022-08-03T05:53:53;21.60;99.90
37702;DHT22;23548;51.196;6.838;2022-08-03T05:56:23;21.80;99.90
37702;DHT22;23548;51.196;6.838;2022-08-03T05:58:52;21.90;99.90
37702;DHT22;23548;51.196;6.838;2022-08-03T06:01:19;22.00;99.90
37702;DHT22;23548;51.196;6.838;2022-08-03T06:03:49;22.10;99.90
37702;DHT22;23548;51.196;6.838;2022-08-03T06:06:15;22.20;99.90
37702;DHT22;23548;51.196;6.838;2022-08-03T06:08:42;22.30;99.90
37702;DHT22;23548;51.196;6.838;2022-08-03T06:11:08;22.40;99.90
37702;DHT22;23548;51.196;6.838;2022-08-03T06:13:34;22.50;99.90
37702;DHT22;23548;51.196;6.838;2022-08-03T06:16:00;22.60;99.90
37702;DHT22;23548;51.196;6.838;2022-08-03T06:18:26;22.70;99.90
37702;DHT22;23548;51.196;6.838;2022-08-03T06:20:52;22.80;99.90
37702;DHT22;23548;51.196;6.838;2022-08-03T06:23:18;22.90;99.90
37702;DHT22;23548;51.196;6.838;2022-08-03T06:25:45;23.00;99.90
37702;DHT22;23548;51.196;6.838;2022-08-03T06:28:11;23.00;99.90
37702;DHT22;23548;51.196;6.838;2022-08-03T06:30:39;23.00;99.90
37702;DHT22;23548;51.196;6.838;2022-08-03T06:33:04;23.00;99.90
37702;DHT22;23548;51.196;6.838;2022-08-03T06:35:30;23.10;99.90
37702;DHT22;23548;51.196;6.838;2022-08-03T06:37:56;23.20;99.90
37702;DHT22;23548;51.196;6.838;2022-08-03T06:40:23;23.30;99.90
37702;DHT22;23548;51.196;6.838;2022-08-03T06:42:57;23.50;99.90
37702;DHT22;23548;51.196;6.838;2022-08-03T06:45:23;23.60;99.90
37702;DHT22;23548;51.196;6.838;2022-08-03T06:48:06;23.60;99.90
37702;DHT22;23548;51.196;6.838;2022-08-03T06:50:33;23.60;99.90
37702;DHT22;23548;51.196;6.838;2022-08-03T06:53:00;23.60;99.90
37702;DHT22;23548;51.196;6.838;2022-08-03T06:55:26;23.70;99.90
37702;DHT22;23548;51.196;6.838;2022-08-03T06:57:52;23.80;99.90
37702;DHT22;23548;51.196;6.838;2022-08-03T07:00:18;23.90;99.90
37702;DHT22;23548;51.196;6.838;2022-08-03T07:02:45;23.90;99.90
37702;DHT22;23548;51.196;6.838;2022-08-03T07:05:11;24.00;99.90
37702;DHT22;23548;51.196;6.838;2022-08-03T07:07:38;24.00;99.90
37702;DHT22;23548;51.196;6.838;2022-08-03T07:10:06;24.20;99.90
37702;DHT22;23548;51.196;6.838;2022-08-03T07:12:33;24.50;99.90
37702;DHT22;23548;51.196;6.838;2022-08-03T07:14:59;24.60;99.90
37702;DHT22;23548;51.196;6.838;2022-08-03T07:17:25;24.80;99.90
37702;DHT22;23548;51.196;6.838;2022-08-03T07:19:51;24.70;99.90
37702;DHT22;23548;51.196;6.838;2022-08-03T07:22:17;24.80;99.90
37702;DHT22;23548;51.196;6.838;2022-08-03T07:24:43;24.80;99.90
37702;DHT22;23548;51.196;6.838;2022-08-03T07:27:09;25.00;99.90
37702;DHT22;23548;51.196;6.838;2022-08-03T07:29:35;25.20;99.90
37702;DHT22;23548;51.196;6.838;2022-08-03T07:32:03;25.20;99.90
37702;DHT22;23548;51.196;6.838;2022-08-03T07:34:29;25.40;99.90
37702;DHT22;23548;51.196;6.838;2022-08-03T07:37:03;25.60;99.90
37702;DHT22;23548;51.196;6.838;2022-08-03T07:39:29;25.70;99.90
37702;DHT22;23548;51.196;6.838;2022-08-03T07:41:55;25.50;99.90
37702;DHT22;23548;51.196;6.838;2022-08-03T07:44:21;25.60;99.90
37702;DHT22;23548;51.196;6.838;2022-08-03T07:46:46;25.30;99.90
37702;DHT22;23548;51.196;6.838;2022-08-03T07:49:12;25.10;99.90
37702;DHT22;23548;51.196;6.838;2022-08-03T07:51:38;25.00;99.90
37702;DHT22;23548;51.196;6.838;2022-08-03T07:54:04;24.80;99.90
37702;DHT22;23548;51.196;6.838;2022-08-03T07:56:30;24.70;99.90
37702;DHT22;23548;51.196;6.838;2022-08-03T07:58:56;24.80;99.90
37702;DHT22;23548;51.196;6.838;2022-08-03T08:01:23;24.90;99.90
37702;DHT22;23548;51.196;6.838;2022-08-03T08:03:49;25.00;99.90
37702;DHT22;23548;51.196;6.838;2022-08-03T08:06:15;25.30;99.90
37702;DHT22;23548;51.196;6.838;2022-08-03T08:08:42;25.40;99.90
37702;DHT22;23548;51.196;6.838;2022-08-03T08:11:08;25.60;99.90
37702;DHT22;23548;51.196;6.838;2022-08-03T08:13:34;25.80;99.90
37702;DHT22;23548;51.196;6.838;2022-08-03T08:16:00;26.00;99.90
37702;DHT22;23548;51.196;6.838;2022-08-03T08:18:25;26.00;99.90
37702;DHT22;23548;51.196;6.838;2022-08-03T08:20:54;26.10;99.90
37702;DHT22;23548;51.196;6.838;2022-08-03T08:23:20;26.30;99.90
37702;DHT22;23548;51.196;6.838;2022-08-03T08:25:50;26.50;99.90
37702;DHT22;23548;51.196;6.838;2022-08-03T08:28:17;26.60;99.90
37702;DHT22;23548;51.196;6.838;2022-08-03T08:30:43;26.60;99.90
37702;DHT22;23548;51.196;6.838;2022-08-03T08:33:09;26.70;99.90
37702;DHT22;23548;51.196;6.838;2022-08-03T08:35:35;26.70;99.90
37702;DHT22;23548;51.196;6.838;2022-08-03T08:38:01;26.70;99.90
37702;DHT22;23548;51.196;6.838;2022-08-03T08:40:27;26.80;99.90
37702;DHT22;23548;51.196;6.838;2022-08-03T08:42:53;26.90;99.40
37702;DHT22;23548;51.196;6.838;2022-08-03T08:45:19;26.80;99.40
37702;DHT22;23548;51.196;6.838;2022-08-03T08:47:47;26.90;99.40
37702;DHT22;23548;51.196;6.838;2022-08-03T08:50:17;27.00;98.20
37702;DHT22;23548;51.196;6.838;2022-08-03T08:52:43;27.10;97.30
37702;DHT22;23548;51.196;6.838;2022-08-03T08:55:13;27.20;96.80
37702;DHT22;23548;51.196;6.838;2022-08-03T08:58:03;27.10;96.50
37702;DHT22;23548;51.196;6.838;2022-08-03T09:00:29;27.00;96.50
37702;DHT22;23548;51.196;6.838;2022-08-03T09:02:56;27.20;96.30
37702;DHT22;23548;51.196;6.838;2022-08-03T09:05:24;27.30;95.80
37702;DHT22;23548;51.196;6.838;2022-08-03T09:07:50;27.30;95.60
37702;DHT22;23548;51.196;6.838;2022-08-03T09:10:17;27.20;95.60
37702;DHT22;23548;51.196;6.838;2022-08-03T09:12:49;27.30;96.00
37702;DHT22;23548;51.196;6.838;2022-08-03T09:15:21;27.40;95.80
37702;DHT22;23548;51.196;6.838;2022-08-03T09:17:48;27.60;95.10
37702;DHT22;23548;51.196;6.838;2022-08-03T09:20:14;27.80;94.90
37702;DHT22;23548;51.196;6.838;2022-08-03T09:25:26;27.90;94.40
37702;DHT22;23548;51.196;6.838;2022-08-03T09:27:52;27.80;94.20
37702;DHT22;23548;51.196;6.838;2022-08-03T09:30:18;27.90;94.30
37702;DHT22;23548;51.196;6.838;2022-08-03T09:32:44;28.00;94.30
37702;DHT22;23548;51.196;6.838;2022-08-03T09:35:12;28.00;93.80
37702;DHT22;23548;51.196;6.838;2022-08-03T09:37:39;28.10;93.90
37702;DHT22;23548;51.196;6.838;2022-08-03T09:40:06;28.30;93.50
37702;DHT22;23548;51.196;6.838;2022-08-03T09:42:32;28.40;92.80
37702;DHT22;23548;51.196;6.838;2022-08-03T09:45:04;28.40;92.80
37702;DHT22;23548;51.196;6.838;2022-08-03T09:47:32;28.50;92.80
37702;DHT22;23548;51.196;6.838;2022-08-03T09:50:01;28.70;92.70
37702;DHT22;23548;51.196;6.838;2022-08-03T09:52:38;28.80;92.30
37702;DHT22;23548;51.196;6.838;2022-08-03T09:55:09;28.90;92.20
37702;DHT22;23548;51.196;6.838;2022-08-03T09:57:35;28.90;91.80
37702;DHT22;23548;51.196;6.838;2022-08-03T10:00:12;28.70;91.40
37702;DHT22;23548;51.196;6.838;2022-08-03T10:02:40;28.70;91.70
37702;DHT22;23548;51.196;6.838;2022-08-03T10:05:08;29.00;90.60
37702;DHT22;23548;51.196;6.838;2022-08-03T10:07:47;29.10;90.60
37702;DHT22;23548;51.196;6.838;2022-08-03T10:10:15;28.90;90.50
37702;DHT22;23548;51.196;6.838;2022-08-03T10:12:43;29.00;90.30
37702;DHT22;23548;51.196;6.838;2022-08-03T10:15:09;29.00;90.40
37702;DHT22;23548;51.196;6.838;2022-08-03T10:17:36;29.00;90.20
37702;DHT22;23548;51.196;6.838;2022-08-03T10:20:03;29.20;90.00
37702;DHT22;23548;51.196;6.838;2022-08-03T10:22:35;29.20;89.40
37702;DHT22;23548;51.196;6.838;2022-08-03T10:25:11;29.20;88.50
37702;DHT22;23548;51.196;6.838;2022-08-03T10:27:39;29.30;88.00
37702;DHT22;23548;51.196;6.838;2022-08-03T10:30:08;29.30;86.60
37702;DHT22;23548;51.196;6.838;2022-08-03T10:32:41;29.30;87.30
37702;DHT22;23548;51.196;6.838;2022-08-03T10:35:12;29.20;87.10
37702;DHT22;23548;51.196;6.838;2022-08-03T10:37:54;29.30;87.30
37702;DHT22;23548;51.196;6.838;2022-08-03T10:40:26;29.30;86.90
37702;DHT22;23548;51.196;6.838;2022-08-03T10:42:55;29.50;85.10
37702;DHT22;23548;51.196;6.838;2022-08-03T10:45:25;29.60;84.60
37702;DHT22;23548;51.196;6.838;2022-08-03T10:47:53;29.60;84.10
37702;DHT22;23548;51.196;6.838;2022-08-03T10:50:22;29.60;84.70
37702;DHT22;23548;51.196;6.838;2022-08-03T10:52:59;29.70;83.20
37702;DHT22;23548;51.196;6.838;2022-08-03T10:58:47;29.90;80.30
37702;DHT22;23548;51.196;6.838;2022-08-03T11:01:14;29.80;81.10
37702;DHT22;23548;51.196;6.838;2022-08-03T11:06:24;29.80;82.30
37702;DHT22;23548;51.196;6.838;2022-08-03T11:09:17;29.90;82.00
37702;DHT22;23548;51.196;6.838;2022-08-03T11:11:45;29.90;81.50
37702;DHT22;23548;51.196;6.838;2022-08-03T11:14:18;29.90;81.80
37702;DHT22;23548;51.196;6.838;2022-08-03T11:16:48;30.00;82.10
37702;DHT22;23548;51.196;6.838;2022-08-03T11:19:18;30.10;80.70
37702;DHT22;23548;51.196;6.838;2022-08-03T11:29:57;30.30;78.20
37702;DHT22;23548;51.196;6.838;2022-08-03T11:35:14;30.20;77.90
37702;DHT22;23548;51.196;6.838;2022-08-03T11:46:09;30.40;75.50
37702;DHT22;23548;51.196;6.838;2022-08-03T11:48:48;30.40;75.90
37702;DHT22;23548;51.196;6.838;2022-08-03T11:51:23;30.50;75.50
37702;DHT22;23548;51.196;6.838;2022-08-03T11:56:19;31.00;74.60
37702;DHT22;23548;51.196;6.838;2022-08-03T11:58:46;31.00;72.30
37702;DHT22;23548;51.196;6.838;2022-08-03T12:01:17;31.00;72.10
37702;DHT22;23548;51.196;6.838;2022-08-03T12:03:42;31.10;70.90
37702;DHT22;23548;51.196;6.838;2022-08-03T12:06:10;31.00;71.00
37702;DHT22;23548;51.196;6.838;2022-08-03T12:08:36;31.00;70.50
37702;DHT22;23548;51.196;6.838;2022-08-03T12:11:04;31.00;69.70
37702;DHT22;23548;51.196;6.838;2022-08-03T12:13:46;31.20;69.80
37702;DHT22;23548;51.196;6.838;2022-08-03T12:16:20;31.20;68.30
37702;DHT22;23548;51.196;6.838;2022-08-03T12:18:59;31.20;68.10
37702;DHT22;23548;51.196;6.838;2022-08-03T12:21:26;31.30;68.40
37702;DHT22;23548;51.196;6.838;2022-08-03T12:24:00;31.50;67.90
37702;DHT22;23548;51.196;6.838;2022-08-03T12:26:28;31.60;67.50
37702;DHT22;23548;51.196;6.838;2022-08-03T12:28:54;31.60;67.00
37702;DHT22;23548;51.196;6.838;2022-08-03T12:31:20;31.40;66.30
37702;DHT22;23548;51.196;6.838;2022-08-03T12:34:02;31.40;66.50
37702;DHT22;23548;51.196;6.838;2022-08-03T12:36:30;31.70;66.40
37702;DHT22;23548;51.196;6.838;2022-08-03T12:39:05;32.00;65.60
37702;DHT22;23548;51.196;6.838;2022-08-03T12:41:39;32.10;66.10
37702;DHT22;23548;51.196;6.838;2022-08-03T12:44:07;32.30;65.30
37702;DHT22;23548;51.196;6.838;2022-08-03T12:46:38;32.00;65.40
37702;DHT22;23548;51.196;6.838;2022-08-03T12:49:05;31.70;65.20
37702;DHT22;23548;51.196;6.838;2022-08-03T12:51:35;31.70;65.20
37702;DHT22;23548;51.196;6.838;2022-08-03T12:54:02;31.70;64.10
37702;DHT22;23548;51.196;6.838;2022-08-03T12:56:28;31.90;63.40
37702;DHT22;23548;51.196;6.838;2022-08-03T12:58:54;32.00;63.10
37702;DHT22;23548;51.196;6.838;2022-08-03T13:01:20;32.10;64.30
37702;DHT22;23548;51.196;6.838;2022-08-03T13:03:50;32.20;64.80
37702;DHT22;23548;51.196;6.838;2022-08-03T13:06:20;32.30;63.60
37702;DHT22;23548;51.196;6.838;2022-08-03T13:08:46;32.30;62.10
37702;DHT22;23548;51.196;6.838;2022-08-03T13:11:26;32.50;62.30
37702;DHT22;23548;51.196;6.838;2022-08-03T13:13:53;32.60;62.20
37702;DHT22;23548;51.196;6.838;2022-08-03T13:16:21;32.70;61.90
37702;DHT22;23548;51.196;6.838;2022-08-03T13:18:50;32.80;62.30
37702;DHT22;23548;51.196;6.838;2022-08-03T13:21:18;32.70;62.40
37702;DHT22;23548;51.196;6.838;2022-08-03T13:23:44;32.50;62.60
37702;DHT22;23548;51.196;6.838;2022-08-03T13:26:11;32.80;62.90
37702;DHT22;23548;51.196;6.838;2022-08-03T13:28:37;32.70;62.40
37702;DHT22;23548;51.196;6.838;2022-08-03T13:31:04;32.60;62.40
37702;DHT22;23548;51.196;6.838;2022-08-03T13:33:30;32.50;63.20
37702;DHT22;23548;51.196;6.838;2022-08-03T13:35:56;32.50;62.80
37702;DHT22;23548;51.196;6.838;2022-08-03T13:38:22;33.70;60.90
37702;DHT22;23548;51.196;6.838;2022-08-03T13:40:50;35.80;57.40
37702;DHT22;23548;51.196;6.838;2022-08-03T13:43:16;36.70;55.50
37702;DHT22;23548;51.196;6.838;2022-08-03T13:45:42;38.80;52.30
37702;DHT22;23548;51.196;6.838;2022-08-03T13:48:08;38.80;50.60
37702;DHT22;23548;51.196;6.838;2022-08-03T13:50:34;39.50;48.70
37702;DHT22;23548;51.196;6.838;2022-08-03T13:52:59;39.30;47.90
37702;DHT22;23548;51.196;6.838;2022-08-03T13:55:25;39.60;47.10
37702;DHT22;23548;51.196;6.838;2022-08-03T13:57:51;39.00;47.10
37702;DHT22;23548;51.196;6.838;2022-08-03T14:00:17;38.80;47.30
37702;DHT22;23548;51.196;6.838;2022-08-03T14:02:43;39.00;47.10
37702;DHT22;23548;51.196;6.838;2022-08-03T14:05:09;40.00;45.90
37702;DHT22;23548;51.196;6.838;2022-08-03T14:07:35;41.20;44.10
37702;DHT22;23548;51.196;6.838;2022-08-03T14:10:01;41.60;43.10
37702;DHT22;23548;51.196;6.838;2022-08-03T14:12:27;42.30;41.60
37702;DHT22;23548;51.196;6.838;2022-08-03T14:14:53;43.00;40.60
37702;DHT22;23548;51.196;6.838;2022-08-03T14:17:19;42.10;40.10
37702;DHT22;23548;51.196;6.838;2022-08-03T14:19:45;43.20;39.50
37702;DHT22;23548;51.196;6.838;2022-08-03T14:22:10;43.70;38.80
37702;DHT22;23548;51.196;6.838;2022-08-03T14:24:36;42.70;38.90
37702;DHT22;23548;51.196;6.838;2022-08-03T14:27:02;43.50;38.20
37702;DHT22;23548;51.196;6.838;2022-08-03T14:29:27;43.00;38.20
37702;DHT22;23548;51.196;6.838;2022-08-03T14:31:53;42.10;38.50
37702;DHT22;23548;51.196;6.838;2022-08-03T14:34:19;42.90;38.10
37702;DHT22;23548;51.196;6.838;2022-08-03T14:36:45;43.40;37.00
37702;DHT22;23548;51.196;6.838;2022-08-03T14:39:12;43.00;37.60
37702;DHT22;23548;51.196;6.838;2022-08-03T14:41:39;43.20;36.80
37702;DHT22;23548;51.196;6.838;2022-08-03T14:44:05;43.20;36.60
37702;DHT22;23548;51.196;6.838;2022-08-03T14:46:30;41.10;38.90
37702;DHT22;23548;51.196;6.838;2022-08-03T14:48:56;42.00;38.30
37702;DHT22;23548;51.196;6.838;2022-08-03T14:51:23;41.70;37.70
37702;DHT22;23548;51.196;6.838;2022-08-03T14:53:49;43.00;37.00
37702;DHT22;23548;51.196;6.838;2022-08-03T14:56:15;42.50;36.90
37702;DHT22;23548;51.196;6.838;2022-08-03T14:58:40;43.30;35.50
37702;DHT22;23548;51.196;6.838;2022-08-03T15:01:27;41.10;37.50
37702;DHT22;23548;51.196;6.838;2022-08-03T15:03:52;42.50;36.90
37702;DHT22;23548;51.196;6.838;2022-08-03T15:06:18;41.80;36.30
37702;DHT22;23548;51.196;6.838;2022-08-03T15:08:44;41.00;37.90
37702;DHT22;23548;51.196;6.838;2022-08-03T15:11:10;41.70;37.40
37702;DHT22;23548;51.196;6.838;2022-08-03T15:13:46;42.40;36.10
37702;DHT22;23548;51.196;6.838;2022-08-03T15:16:28;42.10;35.20
37702;DHT22;23548;51.196;6.838;2022-08-03T15:18:59;41.80;36.70
37702;DHT22;23548;51.196;6.838;2022-08-03T15:21:48;41.50;35.80
37702;DHT22;23548;51.196;6.838;2022-08-03T15:24:14;41.70;36.20
37702;DHT22;23548;51.196;6.838;2022-08-03T15:26:40;41.90;35.50
37702;DHT22;23548;51.196;6.838;2022-08-03T15:29:06;41.60;35.70
37702;DHT22;23548;51.196;6.838;2022-08-03T15:31:33;42.10;34.80
37702;DHT22;23548;51.196;6.838;2022-08-03T15:33:59;41.90;35.00
37702;DHT22;23548;51.196;6.838;2022-08-03T15:36:25;42.40;34.20
37702;DHT22;23548;51.196;6.838;2022-08-03T15:38:53;42.50;34.20
37702;DHT22;23548;51.196;6.838;2022-08-03T15:41:19;42.50;34.20
37702;DHT22;23548;51.196;6.838;2022-08-03T15:43:45;43.90;32.60
37702;DHT22;23548;51.196;6.838;2022-08-03T15:46:12;42.70;32.50
37702;DHT22;23548;51.196;6.838;2022-08-03T15:48:48;43.10;32.60
37702;DHT22;23548;51.196;6.838;2022-08-03T15:51:15;41.60;34.90
37702;DHT22;23548;51.196;6.838;2022-08-03T15:53:40;41.30;34.60
37702;DHT22;23548;51.196;6.838;2022-08-03T15:56:06;41.60;34.10
37702;DHT22;23548;51.196;6.838;2022-08-03T15:58:35;43.90;32.80
37702;DHT22;23548;51.196;6.838;2022-08-03T16:01:01;44.30;32.10
37702;DHT22;23548;51.196;6.838;2022-08-03T16:03:28;45.10;30.80
37702;DHT22;23548;51.196;6.838;2022-08-03T16:06:03;44.00;32.60
37702;DHT22;23548;51.196;6.838;2022-08-03T16:08:29;42.60;33.00
37702;DHT22;23548;51.196;6.838;2022-08-03T16:10:56;41.80;34.20
37702;DHT22;23548;51.196;6.838;2022-08-03T16:13:22;41.70;34.40
37702;DHT22;23548;51.196;6.838;2022-08-03T16:15:48;42.90;33.30
37702;DHT22;23548;51.196;6.838;2022-08-03T16:18:15;41.70;34.50
37702;DHT22;23548;51.196;6.838;2022-08-03T16:20:41;42.60;33.70
37702;DHT22;23548;51.196;6.838;2022-08-03T16:23:07;43.50;32.50
37702;DHT22;23548;51.196;6.838;2022-08-03T16:25:32;43.90;31.60